createdAt,value
2022-12-19T00:01:35.834Z,26.27
2022-12-19T00:04:07.060Z,25.60
2022-12-19T00:06:36.761Z,29.70
2022-12-19T00:09:03.588Z,29.87
2022-12-19T00:11:30.874Z,26.33
2022-12-19T00:13:58.297Z,26.33
2022-12-19T00:16:28.246Z,27.10
2022-12-19T00:18:57.609Z,32.00
2022-12-19T00:21:28.115Z,31.93
2022-12-19T00:23:55.318Z,28.47
2022-12-19T00:26:27.494Z,32.53
2022-12-19T00:28:59.788Z,31.83
2022-12-19T00:31:29.043Z,29.17
2022-12-19T00:33:56.031Z,30.37
2022-12-19T00:36:25.426Z,32.23
2022-12-19T00:38:53.785Z,30.20
2022-12-19T00:41:32.930Z,32.53
2022-12-19T00:44:02.371Z,31.53
2022-12-19T00:46:30.954Z,31.80
2022-12-19T00:48:57.939Z,31.77
2022-12-19T00:51:27.729Z,29.90
2022-12-19T00:53:56.525Z,32.00
2022-12-19T00:56:25.890Z,32.83
2022-12-19T00:58:53.204Z,28.83
2022-12-19T01:01:26.167Z,32.73
2022-12-19T01:04:26.779Z,30.33
2022-12-19T01:06:40.681Z,29.27
2022-12-19T01:09:08.131Z,75.77
2022-12-19T01:11:53.417Z,41.70
2022-12-19T01:14:22.990Z,35.23
2022-12-19T01:16:51.129Z,34.33
2022-12-19T01:19:17.989Z,31.70
2022-12-19T01:21:44.700Z,32.27
2022-12-19T01:24:11.976Z,30.53
2022-12-19T01:26:40.408Z,34.97
2022-12-19T01:29:07.175Z,31.53
2022-12-19T01:31:34.172Z,33.33
2022-12-19T01:34:01.486Z,31.20
2022-12-19T01:36:29.773Z,33.93
2022-12-19T01:38:58.152Z,32.80
2022-12-19T01:41:25.410Z,37.63
2022-12-19T01:44:03.935Z,33.70
2022-12-19T01:46:39.951Z,34.23
2022-12-19T01:49:20.955Z,35.87
2022-12-19T01:51:55.384Z,31.23
2022-12-19T01:54:26.942Z,32.83
2022-12-19T01:57:00.461Z,32.03
2022-12-19T01:59:34.061Z,31.83
2022-12-19T02:02:10.943Z,32.73
2022-12-19T02:04:40.708Z,36.60
2022-12-19T02:07:15.616Z,34.50
2022-12-19T02:09:45.711Z,35.83
2022-12-19T02:12:12.958Z,31.73
2022-12-19T02:14:40.321Z,38.73
2022-12-19T02:17:18.129Z,33.57
2022-12-19T02:20:12.263Z,31.97
2022-12-19T02:22:50.704Z,34.60
2022-12-19T02:25:51.255Z,34.50
2022-12-19T02:28:31.753Z,33.87
2022-12-19T02:31:19.777Z,37.40
2022-12-19T02:34:09.502Z,37.87
2022-12-19T02:37:03.492Z,33.07
2022-12-19T02:39:43.849Z,35.43
2022-12-19T02:42:15.212Z,32.40
2022-12-19T02:44:50.020Z,35.30
2022-12-19T02:47:17.407Z,39.50
2022-12-19T02:49:44.216Z,33.27
2022-12-19T02:52:21.176Z,35.40
2022-12-19T02:54:50.804Z,36.33
2022-12-19T02:57:28.278Z,36.20
2022-12-19T02:59:55.218Z,34.07
2022-12-19T03:03:00.695Z,34.03
2022-12-19T03:05:49.773Z,39.50
2022-12-19T03:08:27.922Z,36.13
2022-12-19T03:11:05.242Z,36.80
2022-12-19T03:13:39.281Z,38.17
2022-12-19T03:16:09.590Z,35.20
2022-12-19T03:18:36.533Z,37.70
2022-12-19T03:21:25.893Z,40.93
2022-12-19T03:23:55.544Z,36.80
2022-12-19T03:26:27.711Z,38.03
2022-12-19T03:29:15.995Z,38.90
2022-12-19T03:31:44.911Z,40.27
2022-12-19T03:34:51.796Z,42.00
2022-12-19T03:37:24.342Z,39.60
2022-12-19T03:39:57.567Z,36.17
2022-12-19T03:42:46.244Z,40.43
2022-12-19T03:45:16.067Z,44.27
2022-12-19T03:47:50.960Z,41.13
2022-12-19T03:50:18.618Z,43.73
2022-12-19T03:52:59.978Z,39.63
2022-12-19T03:55:29.213Z,40.67
2022-12-19T03:58:09.692Z,41.73
2022-12-19T04:00:39.915Z,42.93
2022-12-19T04:03:08.195Z,44.07
2022-12-19T04:05:37.036Z,42.00
2022-12-19T04:08:07.707Z,43.43
2022-12-19T04:10:46.997Z,41.90
2022-12-19T04:13:17.957Z,47.77
2022-12-19T04:16:08.342Z,44.63
2022-12-19T04:18:36.275Z,43.57
2022-12-19T04:21:08.894Z,39.90
2022-12-19T04:23:42.647Z,41.30
2022-12-19T04:26:11.075Z,46.30
2022-12-19T04:28:48.372Z,44.37
2022-12-19T04:31:16.075Z,47.00
2022-12-19T04:33:43.100Z,43.77
2022-12-19T04:36:10.998Z,43.90
2022-12-19T04:38:37.726Z,44.80
2022-12-19T04:41:04.445Z,45.00
2022-12-19T04:43:31.408Z,44.23
2022-12-19T04:45:58.120Z,48.23
2022-12-19T04:48:25.405Z,47.10
2022-12-19T04:50:52.387Z,46.43
2022-12-19T04:53:19.164Z,44.47
2022-12-19T04:55:45.848Z,44.83
2022-12-19T04:58:16.334Z,49.73
2022-12-19T05:00:45.817Z,46.57
2022-12-19T05:03:12.807Z,51.03
2022-12-19T05:05:40.721Z,48.43
2022-12-19T05:08:07.775Z,47.67
2022-12-19T05:10:35.963Z,49.60
2022-12-19T05:13:02.669Z,46.10
2022-12-19T05:15:29.668Z,49.13
2022-12-19T05:17:57.603Z,45.80
2022-12-19T05:20:24.297Z,48.10
2022-12-19T05:22:51.013Z,44.63
2022-12-19T05:25:17.725Z,48.50
2022-12-19T05:27:44.392Z,48.87
2022-12-19T05:30:11.608Z,47.50
2022-12-19T05:32:38.824Z,42.27
2022-12-19T05:35:06.037Z,46.73
2022-12-19T05:37:35.051Z,48.50
2022-12-19T05:40:01.911Z,52.10
2022-12-19T05:42:28.606Z,48.97
2022-12-19T05:44:55.304Z,48.57
2022-12-19T05:47:22.054Z,48.53
2022-12-19T05:49:48.756Z,47.23
2022-12-19T05:52:15.432Z,51.10
2022-12-19T05:54:42.172Z,49.93
2022-12-19T05:57:08.856Z,46.53
2022-12-19T05:59:35.549Z,48.83
2022-12-19T06:02:02.413Z,50.87
2022-12-19T06:04:30.046Z,54.63
2022-12-19T06:06:56.782Z,49.77
2022-12-19T06:09:23.561Z,50.87
2022-12-19T06:11:51.137Z,46.60
2022-12-19T06:14:17.942Z,51.30
2022-12-19T06:16:44.757Z,47.60
2022-12-19T06:19:11.479Z,51.70
2022-12-19T06:21:45.482Z,50.33
2022-12-19T06:24:14.575Z,46.40
2022-12-19T06:26:41.446Z,46.80
2022-12-19T06:29:08.200Z,51.10
2022-12-19T06:31:35.020Z,52.53
2022-12-19T06:34:02.423Z,47.67
2022-12-19T06:36:30.710Z,55.83
2022-12-19T06:38:58.460Z,46.83
2022-12-19T06:41:44.152Z,50.23
2022-12-19T06:44:13.088Z,46.53
2022-12-19T06:46:40.821Z,53.43
2022-12-19T06:49:07.841Z,49.10
2022-12-19T06:51:34.960Z,52.47
2022-12-19T06:54:02.015Z,49.43
2022-12-19T06:56:33.902Z,48.63
2022-12-19T06:59:00.855Z,51.73
2022-12-19T07:01:34.788Z,51.67
2022-12-19T07:04:01.744Z,48.27
2022-12-19T07:06:28.607Z,52.57
2022-12-19T07:08:55.326Z,50.27
2022-12-19T07:11:22.106Z,53.77
2022-12-19T07:13:48.773Z,51.47
2022-12-19T07:16:15.599Z,50.63
2022-12-19T07:18:42.626Z,52.97
2022-12-19T07:21:13.853Z,50.47
2022-12-19T07:23:41.267Z,50.40
2022-12-19T07:26:08.423Z,51.00
2022-12-19T07:28:35.910Z,48.57
2022-12-19T07:31:02.655Z,46.07
2022-12-19T07:33:29.382Z,54.27
2022-12-19T07:35:56.091Z,46.73
2022-12-19T07:38:22.836Z,48.67
2022-12-19T07:40:49.568Z,47.73
2022-12-19T07:43:16.323Z,49.57
2022-12-19T07:45:43.133Z,52.23
2022-12-19T07:48:10.233Z,51.43
2022-12-19T07:50:36.992Z,48.83
2022-12-19T07:53:03.741Z,46.43
2022-12-19T07:55:30.580Z,51.57
2022-12-19T07:57:57.358Z,44.57
2022-12-19T08:00:24.116Z,47.73
2022-12-19T08:02:50.975Z,48.40
2022-12-19T08:05:17.874Z,47.67
2022-12-19T08:07:44.727Z,46.17
2022-12-19T08:10:12.649Z,48.97
2022-12-19T08:12:39.527Z,48.33
2022-12-19T08:15:07.790Z,48.90
2022-12-19T08:17:35.437Z,47.27
2022-12-19T08:20:02.355Z,45.13
2022-12-19T08:22:30.595Z,45.83
2022-12-19T08:24:57.704Z,49.80
2022-12-19T08:27:24.967Z,46.60
2022-12-19T08:29:52.180Z,48.27
2022-12-19T08:32:21.391Z,44.03
2022-12-19T08:34:50.114Z,50.00
2022-12-19T08:37:17.486Z,48.00
2022-12-19T08:39:44.448Z,47.27
2022-12-19T08:42:11.221Z,47.63
2022-12-19T08:44:37.914Z,45.93
2022-12-19T08:47:04.823Z,45.67
2022-12-19T08:49:31.549Z,45.60
2022-12-19T08:51:58.403Z,44.93
2022-12-19T08:54:25.138Z,46.13
2022-12-19T08:56:51.856Z,43.10
2022-12-19T08:59:30.368Z,45.53
2022-12-19T09:01:59.595Z,43.70
2022-12-19T09:05:58.787Z,49.47
2022-12-19T09:07:15.744Z,42.97
2022-12-19T09:09:43.705Z,45.67
2022-12-19T09:12:11.819Z,45.87
2022-12-19T09:14:38.495Z,45.57
2022-12-19T09:17:05.261Z,39.60
2022-12-19T09:19:32.382Z,46.43
2022-12-19T09:21:59.247Z,43.40
2022-12-19T09:24:26.324Z,46.83
2022-12-19T09:26:53.459Z,43.63
2022-12-19T09:29:21.744Z,43.97
2022-12-19T09:31:55.394Z,43.00
2022-12-19T09:34:36.942Z,46.10
2022-12-19T09:37:15.824Z,47.63
2022-12-19T09:39:45.446Z,46.30
2022-12-19T09:42:15.016Z,46.07
2022-12-19T09:45:02.256Z,46.80
2022-12-19T09:47:33.919Z,46.20
2022-12-19T09:50:02.276Z,46.00
2022-12-19T09:52:35.282Z,47.80
2022-12-19T09:55:44.913Z,45.23
2022-12-19T09:58:32.573Z,48.47
2022-12-19T10:01:04.475Z,45.10
2022-12-19T10:03:40.042Z,42.40
2022-12-19T10:07:09.440Z,50.23
2022-12-19T10:11:35.792Z,43.87
2022-12-19T10:12:44.838Z,48.70
2022-12-19T10:15:40.613Z,45.10
2022-12-19T10:18:32.038Z,44.33
2022-12-19T10:21:20.596Z,44.87
2022-12-19T10:24:38.093Z,45.73
2022-12-19T10:27:26.490Z,43.83
2022-12-19T10:30:11.124Z,42.67
2022-12-19T10:32:43.911Z,40.93
2022-12-19T10:35:17.491Z,45.20
2022-12-19T10:38:19.459Z,43.40
2022-12-19T10:40:52.045Z,44.43
2022-12-19T10:43:52.246Z,44.47
2022-12-19T10:46:37.615Z,41.10
2022-12-19T10:49:21.881Z,43.27
2022-12-19T10:52:11.218Z,45.87
2022-12-19T10:54:37.977Z,46.77
2022-12-19T10:57:19.854Z,43.77
2022-12-19T11:00:14.532Z,42.23
2022-12-19T11:02:47.580Z,46.13
2022-12-19T11:05:23.459Z,46.00
2022-12-19T11:08:08.904Z,41.00
2022-12-19T11:11:53.727Z,43.03
2022-12-19T11:19:30.243Z,42.97
2022-12-19T11:22:17.331Z,47.97
2022-12-19T11:29:16.904Z,43.67
2022-12-19T11:29:31.324Z,43.97
2022-12-19T11:30:46.601Z,43.53
2022-12-19T11:30:47.279Z,41.43
2022-12-19T11:34:23.883Z,39.67
2022-12-19T11:37:14.601Z,42.77
2022-12-19T11:40:13.632Z,40.13
2022-12-19T11:43:42.750Z,43.60
2022-12-19T11:46:04.527Z,42.20
2022-12-19T11:48:44.434Z,41.60
2022-12-19T11:52:02.063Z,42.00
2022-12-19T11:54:59.213Z,45.33
2022-12-19T11:57:27.180Z,44.53
2022-12-19T11:59:55.644Z,43.50
2022-12-19T12:02:42.115Z,41.40
2022-12-19T12:05:32.916Z,49.80
2022-12-19T12:11:40.882Z,42.33
2022-12-19T12:20:25.304Z,46.50
2022-12-19T12:25:09.740Z,46.43
2022-12-19T12:31:21.024Z,41.33
2022-12-19T12:31:25.831Z,43.87
2022-12-19T12:31:41.758Z,43.20
2022-12-19T12:32:02.057Z,43.37
2022-12-19T12:32:02.262Z,46.17
2022-12-19T12:35:38.454Z,42.23
2022-12-19T12:38:45.590Z,43.43
2022-12-19T12:41:58.769Z,38.90
2022-12-19T12:44:32.641Z,41.53
2022-12-19T12:47:06.783Z,42.93
2022-12-19T12:50:03.751Z,41.63
2022-12-19T12:52:39.199Z,42.37
2022-12-19T12:55:15.729Z,39.47
2022-12-19T12:57:42.516Z,44.10
2022-12-19T13:00:15.736Z,43.23
2022-12-19T13:02:47.399Z,40.27
2022-12-19T13:05:32.347Z,37.37
2022-12-19T13:07:59.511Z,39.77
2022-12-19T13:10:32.216Z,39.60
2022-12-19T13:13:09.369Z,42.53
2022-12-19T13:15:43.405Z,40.57
2022-12-19T13:18:31.494Z,44.07
2022-12-19T13:20:59.846Z,40.30
2022-12-19T13:23:26.496Z,39.13
2022-12-19T13:25:54.556Z,37.10
2022-12-19T13:28:21.280Z,36.60
2022-12-19T13:31:21.075Z,39.70
2022-12-19T13:33:56.000Z,41.00
2022-12-19T13:39:47.804Z,38.90
2022-12-19T13:40:07.512Z,38.37
2022-12-19T13:43:10.956Z,37.00
2022-12-19T13:45:41.393Z,38.43
2022-12-19T13:48:18.625Z,37.67
2022-12-19T13:50:49.604Z,40.37
2022-12-19T13:53:22.867Z,41.60
2022-12-19T13:55:50.024Z,39.63
2022-12-19T13:58:40.028Z,35.00
2022-12-19T14:01:20.901Z,40.17
2022-12-19T14:03:50.451Z,35.33
2022-12-19T14:06:38.327Z,37.73
2022-12-19T14:11:27.109Z,34.00
2022-12-19T14:13:57.406Z,33.63
2022-12-19T14:15:43.979Z,37.27
2022-12-19T14:18:45.356Z,36.23
2022-12-19T14:22:10.511Z,37.70
2022-12-19T14:24:11.071Z,38.60
2022-12-19T14:28:26.981Z,36.03
2022-12-19T14:30:28.283Z,37.33
2022-12-19T14:33:21.991Z,36.23
2022-12-19T14:36:09.920Z,35.93
2022-12-19T14:39:26.828Z,36.00
2022-12-19T14:41:09.470Z,36.00
2022-12-19T14:44:00.007Z,34.20
2022-12-19T14:54:01.421Z,35.70
2022-12-19T14:54:06.893Z,38.17
2022-12-19T14:54:21.294Z,36.97
2022-12-19T14:56:16.610Z,38.93
2022-12-19T14:58:56.025Z,34.27
2022-12-19T15:01:32.319Z,34.40
2022-12-19T15:04:50.711Z,35.43
2022-12-19T15:07:11.982Z,38.03
2022-12-19T15:11:05.011Z,34.40
2022-12-19T15:14:54.922Z,38.73
2022-12-19T15:16:06.113Z,36.90
2022-12-19T15:18:33.033Z,41.17
2022-12-19T15:21:09.627Z,34.90
2022-12-19T15:23:36.505Z,35.30
2022-12-19T15:26:13.041Z,33.47
2022-12-19T15:28:51.414Z,34.37
2022-12-19T15:31:18.182Z,33.23
2022-12-19T15:34:14.382Z,37.80
2022-12-19T15:36:31.787Z,36.60
2022-12-19T15:38:58.979Z,45.10
2022-12-19T15:41:25.801Z,33.97
2022-12-19T15:44:03.533Z,39.00
2022-12-19T15:46:31.528Z,35.20
2022-12-19T15:48:58.317Z,33.80
2022-12-19T15:51:25.656Z,34.37
2022-12-19T15:53:52.383Z,33.67
2022-12-19T15:56:28.923Z,36.10
2022-12-19T15:58:58.453Z,36.97
2022-12-19T16:01:26.609Z,38.23
2022-12-19T16:03:54.048Z,36.83
2022-12-19T16:06:21.040Z,38.07
2022-12-19T16:08:47.833Z,33.10
2022-12-19T16:11:24.401Z,35.00
2022-12-19T16:13:55.600Z,35.20
2022-12-19T16:16:22.736Z,35.83
2022-12-19T16:18:49.716Z,36.50
2022-12-19T16:21:27.366Z,35.73
2022-12-19T16:23:58.137Z,35.97
2022-12-19T16:26:32.777Z,36.10
2022-12-19T16:28:59.723Z,33.37
2022-12-19T16:31:27.643Z,32.23
2022-12-19T16:33:54.542Z,35.70
2022-12-19T16:36:21.889Z,33.13
2022-12-19T16:38:48.903Z,31.87
2022-12-19T16:41:19.615Z,34.87
2022-12-19T16:43:46.711Z,36.33
2022-12-19T16:46:18.355Z,37.83
2022-12-19T16:48:45.253Z,40.90
2022-12-19T16:51:22.197Z,36.40
2022-12-19T16:53:50.693Z,33.93
2022-12-19T16:56:31.341Z,37.93
2022-12-19T16:59:01.233Z,38.33
2022-12-19T17:01:28.718Z,37.57
2022-12-19T17:03:55.551Z,33.67
2022-12-19T17:06:23.217Z,37.27
2022-12-19T17:08:49.953Z,48.03
2022-12-19T17:11:23.076Z,40.50
2022-12-19T17:13:52.746Z,41.50
2022-12-19T17:16:19.702Z,36.73
2022-12-19T17:18:47.285Z,38.53
2022-12-19T17:21:20.261Z,36.63
2022-12-19T17:23:47.936Z,39.73
2022-12-19T17:26:18.031Z,38.47
2022-12-19T17:28:48.133Z,39.20
2022-12-19T17:31:25.740Z,37.10
2022-12-19T17:33:54.991Z,35.43
2022-12-19T17:36:28.704Z,36.57
2022-12-19T17:38:58.295Z,35.50
2022-12-19T17:41:25.581Z,35.60
2022-12-19T17:43:52.312Z,36.70
2022-12-19T17:46:22.291Z,39.33
2022-12-19T17:48:51.921Z,40.93
2022-12-19T17:51:20.495Z,35.60
2022-12-19T17:53:47.399Z,32.67
2022-12-19T17:56:16.044Z,40.30
2022-12-19T17:58:43.298Z,38.30
2022-12-19T18:01:31.291Z,43.33
2022-12-19T18:03:59.658Z,36.40
2022-12-19T18:06:26.454Z,37.73
2022-12-19T18:08:53.386Z,38.23
2022-12-19T18:11:22.979Z,40.63
2022-12-19T18:13:50.043Z,36.57
2022-12-19T18:16:20.815Z,39.43
2022-12-19T18:18:48.175Z,40.13
2022-12-19T18:21:17.907Z,40.13
2022-12-19T18:23:44.937Z,39.33
2022-12-19T18:26:13.035Z,38.57
2022-12-19T18:28:42.850Z,38.73
2022-12-19T18:31:17.945Z,38.57
2022-12-19T18:33:47.253Z,38.13
2022-12-19T18:36:19.386Z,39.20
2022-12-19T18:38:46.898Z,41.43
2022-12-19T18:41:13.671Z,35.53
2022-12-19T18:43:40.588Z,37.63
2022-12-19T18:46:11.784Z,46.13
2022-12-19T18:48:38.573Z,39.10
2022-12-19T18:51:05.968Z,42.93
2022-12-19T18:53:35.744Z,37.43
2022-12-19T18:56:04.817Z,39.27
2022-12-19T18:58:32.198Z,38.63
2022-12-19T19:01:00.443Z,40.47
2022-12-19T19:03:37.287Z,40.60
2022-12-19T19:06:06.480Z,42.40
2022-12-19T19:08:34.731Z,41.80
2022-12-19T19:11:01.815Z,40.57
2022-12-19T19:13:29.665Z,40.00
2022-12-19T19:16:01.564Z,38.33
2022-12-19T19:18:40.138Z,49.10
2022-12-19T19:21:10.940Z,40.70
2022-12-19T19:23:43.461Z,40.57
2022-12-19T19:26:10.277Z,45.70
2022-12-19T19:28:39.901Z,43.43
2022-12-19T19:31:10.991Z,43.33
2022-12-19T19:33:46.333Z,42.83
2022-12-19T19:36:20.348Z,38.67
2022-12-19T19:38:51.246Z,47.43
2022-12-19T19:41:18.038Z,44.13
2022-12-19T19:43:44.819Z,47.90
2022-12-19T19:46:15.208Z,38.60
2022-12-19T19:48:42.674Z,40.50
2022-12-19T19:51:09.738Z,38.93
2022-12-19T19:53:36.494Z,41.70
2022-12-19T19:56:04.836Z,41.57
2022-12-19T19:58:32.159Z,42.17
2022-12-19T20:00:59.202Z,46.93
2022-12-19T20:03:26.618Z,41.10
2022-12-19T20:06:01.055Z,43.83
2022-12-19T20:08:30.971Z,44.43
2022-12-19T20:11:00.589Z,41.80
2022-12-19T20:13:29.797Z,42.93
2022-12-19T20:16:04.733Z,43.33
2022-12-19T20:18:31.729Z,38.67
2022-12-19T20:20:58.529Z,41.60
2022-12-19T20:23:25.412Z,47.70
2022-12-19T20:25:52.297Z,45.83
2022-12-19T20:28:19.149Z,44.53
2022-12-19T20:30:47.174Z,42.70
2022-12-19T20:33:14.079Z,46.17
2022-12-19T20:35:40.880Z,43.40
2022-12-19T20:38:07.586Z,40.80
2022-12-19T20:40:34.329Z,42.60
2022-12-19T20:43:01.124Z,41.97
2022-12-19T20:45:28.019Z,41.80
2022-12-19T20:47:55.319Z,42.80
2022-12-19T20:50:22.430Z,38.27
2022-12-19T20:52:49.154Z,41.27
2022-12-19T20:55:15.990Z,44.55
2022-12-19T20:57:42.681Z,42.37
2022-12-19T21:00:10.521Z,42.00
2022-12-19T21:03:16.716Z,40.73
2022-12-19T21:05:24.030Z,43.33
2022-12-19T21:07:50.780Z,41.70
2022-12-19T21:10:17.566Z,39.73
2022-12-19T21:12:47.843Z,37.77
2022-12-19T21:15:15.500Z,41.53
2022-12-19T21:17:42.386Z,40.50
2022-12-19T21:20:09.893Z,42.87
2022-12-19T21:22:36.757Z,45.13
2022-12-19T21:25:04.200Z,39.03
2022-12-19T21:27:30.949Z,43.13
2022-12-19T21:29:57.703Z,40.40
2022-12-19T21:32:24.429Z,38.77
2022-12-19T21:34:53.162Z,46.63
2022-12-19T21:37:20.036Z,43.17
2022-12-19T21:39:46.731Z,46.97
2022-12-19T21:42:13.452Z,40.60
2022-12-19T21:44:40.211Z,40.30
2022-12-19T21:47:06.988Z,37.20
2022-12-19T21:49:33.751Z,41.10
2022-12-19T21:52:00.452Z,44.20
2022-12-19T21:54:27.145Z,39.20
2022-12-19T21:56:53.908Z,41.67
2022-12-19T21:59:20.625Z,37.90
2022-12-19T22:01:47.611Z,40.53
2022-12-19T22:04:20.651Z,39.03
2022-12-19T22:06:50.127Z,41.87
2022-12-19T22:09:19.328Z,39.90
2022-12-19T22:11:46.354Z,37.90
2022-12-19T22:14:14.658Z,35.83
2022-12-19T22:16:41.737Z,39.47
2022-12-19T22:19:09.888Z,40.73
2022-12-19T22:21:37.097Z,34.50
2022-12-19T22:24:04.712Z,40.03
2022-12-19T22:26:32.358Z,38.23
2022-12-19T22:28:59.445Z,38.47
2022-12-19T22:31:32.017Z,39.00
2022-12-19T22:34:16.443Z,38.57
2022-12-19T22:36:44.475Z,36.13
2022-12-19T22:39:16.366Z,39.77
2022-12-19T22:41:43.302Z,37.77
2022-12-19T22:44:17.147Z,36.67
2022-12-19T22:46:44.181Z,40.10
2022-12-19T22:49:12.411Z,39.70
2022-12-19T22:51:39.776Z,41.93
2022-12-19T22:54:06.942Z,39.93
2022-12-19T22:56:34.679Z,43.17
2022-12-19T22:59:04.489Z,38.23
2022-12-19T23:01:37.468Z,39.83
2022-12-19T23:04:06.211Z,38.97
2022-12-19T23:06:35.848Z,40.27
2022-12-19T23:09:03.662Z,41.00
2022-12-19T23:11:34.123Z,37.00
2022-12-19T23:14:02.247Z,38.47
2022-12-19T23:16:29.156Z,45.27
2022-12-19T23:18:56.006Z,35.10
2022-12-19T23:21:24.597Z,40.43
2022-12-19T23:23:53.901Z,36.37
2022-12-19T23:26:33.099Z,39.37
2022-12-19T23:29:02.467Z,37.87
2022-12-19T23:31:30.008Z,40.20
2022-12-19T23:33:57.664Z,37.30
2022-12-19T23:37:00.367Z,41.93
2022-12-19T23:39:12.540Z,42.00
2022-12-19T23:41:40.049Z,40.13
2022-12-19T23:44:07.195Z,38.00
2022-12-19T23:46:33.912Z,36.73
2022-12-19T23:49:00.710Z,37.50
2022-12-19T23:51:28.721Z,34.13
2022-12-19T23:53:56.489Z,35.77
2022-12-19T23:56:24.559Z,35.33
2022-12-19T23:58:51.752Z,38.33
